sensor_id;sensor_type;location;lat;lon;timestamp;temperature;humidity
37874;DHT22;23709;48.078;11.684;2023-04-29T00:00:18;10.30;99.90
37874;DHT22;23709;48.078;11.684;2023-04-29T00:02:50;10.30;99.90
37874;DHT22;23709;48.078;11.684;2023-04-29T00:05:23;10.30;99.90
37874;DHT22;23709;48.078;11.684;2023-04-29T00:07:55;10.30;99.90
37874;DHT22;23709;48.078;11.684;2023-04-29T00:10:29;10.30;99.90
37874;DHT22;23709;48.078;11.684;2023-04-29T00:13:01;10.20;99.90
37874;DHT22;23709;48.078;11.684;2023-04-29T00:15:33;10.20;99.90
37874;DHT22;23709;48.078;11.684;2023-04-29T00:18:06;10.20;99.90
37874;DHT22;23709;48.078;11.684;2023-04-29T00:20:38;10.30;99.90
37874;DHT22;23709;48.078;11.684;2023-04-29T00:23:10;10.20;99.90
37874;DHT22;23709;48.078;11.684;2023-04-29T00:25:43;10.20;99.90
37874;DHT22;23709;48.078;11.684;2023-04-29T00:28:15;10.20;99.90
37874;DHT22;23709;48.078;11.684;2023-04-29T00:30:47;10.20;99.90
37874;DHT22;23709;48.078;11.684;2023-04-29T00:33:20;10.20;99.90
37874;DHT22;23709;48.078;11.684;2023-04-29T00:35:52;10.10;99.90
37874;DHT22;23709;48.078;11.684;2023-04-29T00:38:25;10.20;99.90
37874;DHT22;23709;48.078;11.684;2023-04-29T00:40:57;10.20;99.90
37874;DHT22;23709;48.078;11.684;2023-04-29T00:43:30;10.20;99.90
37874;DHT22;23709;48.078;11.684;2023-04-29T00:46:02;10.20;99.90
37874;DHT22;23709;48.078;11.684;2023-04-29T00:48:34;10.20;99.90
37874;DHT22;23709;48.078;11.684;2023-04-29T00:51:07;10.30;99.90
37874;DHT22;23709;48.078;11.684;2023-04-29T00:53:40;10.30;99.90
37874;DHT22;23709;48.078;11.684;2023-04-29T00:56:12;10.30;99.90
37874;DHT22;23709;48.078;11.684;2023-04-29T00:58:46;10.30;99.90
37874;DHT22;23709;48.078;11.684;2023-04-29T01:01:21;10.40;99.90
37874;DHT22;23709;48.078;11.684;2023-04-29T01:03:54;10.40;99.90
37874;DHT22;23709;48.078;11.684;2023-04-29T01:10:07;10.50;99.90
37874;DHT22;23709;48.078;11.684;2023-04-29T01:12:44;10.60;99.90
37874;DHT22;23709;48.078;11.684;2023-04-29T01:15:25;10.60;99.90
37874;DHT22;23709;48.078;11.684;2023-04-29T01:18:03;10.60;99.90
37874;DHT22;23709;48.078;11.684;2023-04-29T01:20:37;10.70;99.90
37874;DHT22;23709;48.078;11.684;2023-04-29T01:23:09;10.60;99.90
37874;DHT22;23709;48.078;11.684;2023-04-29T01:25:44;10.80;99.90
37874;DHT22;23709;48.078;11.684;2023-04-29T01:32:05;10.70;99.90
37874;DHT22;23709;48.078;11.684;2023-04-29T01:35:10;10.70;99.90
37874;DHT22;23709;48.078;11.684;2023-04-29T01:41:09;10.70;99.90
37874;DHT22;23709;48.078;11.684;2023-04-29T01:43:42;10.80;99.90
37874;DHT22;23709;48.078;11.684;2023-04-29T01:46:23;10.70;99.90
37874;DHT22;23709;48.078;11.684;2023-04-29T01:48:59;10.70;99.90
37874;DHT22;23709;48.078;11.684;2023-04-29T01:51:32;10.70;99.90
37874;DHT22;23709;48.078;11.684;2023-04-29T01:54:05;10.70;99.90
37874;DHT22;23709;48.078;11.684;2023-04-29T01:56:38;10.60;99.90
37874;DHT22;23709;48.078;11.684;2023-04-29T01:59:26;10.70;99.90
37874;DHT22;23709;48.078;11.684;2023-04-29T02:02:15;10.60;99.90
37874;DHT22;23709;48.078;11.684;2023-04-29T02:05:00;10.70;99.90
37874;DHT22;23709;48.078;11.684;2023-04-29T02:07:33;10.60;99.90
37874;DHT22;23709;48.078;11.684;2023-04-29T02:10:06;10.70;99.90
37874;DHT22;23709;48.078;11.684;2023-04-29T02:12:42;10.70;99.90
37874;DHT22;23709;48.078;11.684;2023-04-29T02:15:14;10.70;99.90
37874;DHT22;23709;48.078;11.684;2023-04-29T02:17:47;10.70;99.90
37874;DHT22;23709;48.078;11.684;2023-04-29T02:20:19;10.80;99.90
37874;DHT22;23709;48.078;11.684;2023-04-29T02:22:52;10.80;99.90
37874;DHT22;23709;48.078;11.684;2023-04-29T02:25:24;10.80;99.90
37874;DHT22;23709;48.078;11.684;2023-04-29T02:27:56;10.80;99.90
37874;DHT22;23709;48.078;11.684;2023-04-29T02:30:28;10.80;99.90
37874;DHT22;23709;48.078;11.684;2023-04-29T02:33:01;10.80;99.90
37874;DHT22;23709;48.078;11.684;2023-04-29T02:35:33;10.80;99.90
37874;DHT22;23709;48.078;11.684;2023-04-29T02:38:06;10.90;99.90
37874;DHT22;23709;48.078;11.684;2023-04-29T02:40:42;10.80;99.90
37874;DHT22;23709;48.078;11.684;2023-04-29T02:43:14;10.80;99.90
37874;DHT22;23709;48.078;11.684;2023-04-29T02:45:48;10.80;99.90
37874;DHT22;23709;48.078;11.684;2023-04-29T02:48:21;10.80;99.90
37874;DHT22;23709;48.078;11.684;2023-04-29T02:51:12;10.80;99.90
37874;DHT22;23709;48.078;11.684;2023-04-29T02:54:02;10.80;99.90
37874;DHT22;23709;48.078;11.684;2023-04-29T02:56:34;10.80;99.90
37874;DHT22;23709;48.078;11.684;2023-04-29T02:59:07;10.80;99.90
37874;DHT22;23709;48.078;11.684;2023-04-29T03:01:39;10.80;99.90
37874;DHT22;23709;48.078;11.684;2023-04-29T03:04:12;10.80;99.90
37874;DHT22;23709;48.078;11.684;2023-04-29T03:06:44;10.70;99.90
37874;DHT22;23709;48.078;11.684;2023-04-29T03:09:17;10.60;99.90
37874;DHT22;23709;48.078;11.684;2023-04-29T03:11:51;10.70;99.90
37874;DHT22;23709;48.078;11.684;2023-04-29T03:14:24;10.70;99.90
37874;DHT22;23709;48.078;11.684;2023-04-29T03:16:56;10.70;99.90
37874;DHT22;23709;48.078;11.684;2023-04-29T03:19:29;10.60;99.90
37874;DHT22;23709;48.078;11.684;2023-04-29T03:22:02;10.70;99.90
37874;DHT22;23709;48.078;11.684;2023-04-29T03:24:34;10.70;99.90
37874;DHT22;23709;48.078;11.684;2023-04-29T03:27:06;10.70;99.90
37874;DHT22;23709;48.078;11.684;2023-04-29T03:29:39;10.80;99.90
37874;DHT22;23709;48.078;11.684;2023-04-29T03:32:11;10.80;99.90
37874;DHT22;23709;48.078;11.684;2023-04-29T03:34:43;10.80;99.90
37874;DHT22;23709;48.078;11.684;2023-04-29T03:37:38;10.80;99.90
37874;DHT22;23709;48.078;11.684;2023-04-29T03:40:33;10.80;99.90
37874;DHT22;23709;48.078;11.684;2023-04-29T03:43:05;10.80;99.90
37874;DHT22;23709;48.078;11.684;2023-04-29T03:45:40;10.80;99.90
37874;DHT22;23709;48.078;11.684;2023-04-29T03:48:13;10.80;99.90
37874;DHT22;23709;48.078;11.684;2023-04-29T03:50:45;10.80;99.90
37874;DHT22;23709;48.078;11.684;2023-04-29T03:53:18;10.90;99.90
37874;DHT22;23709;48.078;11.684;2023-04-29T03:55:50;10.90;99.90
37874;DHT22;23709;48.078;11.684;2023-04-29T03:58:23;11.00;99.90
37874;DHT22;23709;48.078;11.684;2023-04-29T04:00:56;11.00;99.90
37874;DHT22;23709;48.078;11.684;2023-04-29T04:03:36;11.00;99.90
37874;DHT22;23709;48.078;11.684;2023-04-29T04:06:09;11.00;99.90
37874;DHT22;23709;48.078;11.684;2023-04-29T04:08:41;11.00;99.90
37874;DHT22;23709;48.078;11.684;2023-04-29T04:11:18;11.10;99.90
37874;DHT22;23709;48.078;11.684;2023-04-29T04:13:59;11.00;99.90
37874;DHT22;23709;48.078;11.684;2023-04-29T04:16:33;11.10;99.90
37874;DHT22;23709;48.078;11.684;2023-04-29T04:19:06;11.10;99.90
37874;DHT22;23709;48.078;11.684;2023-04-29T04:21:41;11.10;99.90
37874;DHT22;23709;48.078;11.684;2023-04-29T04:24:14;11.10;99.90
37874;DHT22;23709;48.078;11.684;2023-04-29T04:26:46;11.10;99.90
37874;DHT22;23709;48.078;11.684;2023-04-29T04:29:23;11.10;99.90
37874;DHT22;23709;48.078;11.684;2023-04-29T04:32:18;11.00;99.90
37874;DHT22;23709;48.078;11.684;2023-04-29T04:34:50;11.00;99.90
37874;DHT22;23709;48.078;11.684;2023-04-29T04:37:24;11.10;99.90
37874;DHT22;23709;48.078;11.684;2023-04-29T04:39:59;11.10;99.90
37874;DHT22;23709;48.078;11.684;2023-04-29T04:42:34;11.10;99.90
37874;DHT22;23709;48.078;11.684;2023-04-29T04:45:07;11.10;99.90
37874;DHT22;23709;48.078;11.684;2023-04-29T04:47:52;11.30;99.90
37874;DHT22;23709;48.078;11.684;2023-04-29T04:50:27;11.30;99.90
37874;DHT22;23709;48.078;11.684;2023-04-29T04:53:00;11.30;99.90
37874;DHT22;23709;48.078;11.684;2023-04-29T04:55:47;11.30;99.90
37874;DHT22;23709;48.078;11.684;2023-04-29T04:58:21;11.30;99.90
37874;DHT22;23709;48.078;11.684;2023-04-29T05:00:53;11.30;99.90
37874;DHT22;23709;48.078;11.684;2023-04-29T05:03:26;11.30;99.90
37874;DHT22;23709;48.078;11.684;2023-04-29T05:05:59;11.30;99.90
37874;DHT22;23709;48.078;11.684;2023-04-29T05:08:32;11.40;99.90
37874;DHT22;23709;48.078;11.684;2023-04-29T05:11:15;11.50;99.90
37874;DHT22;23709;48.078;11.684;2023-04-29T05:13:48;11.50;99.90
37874;DHT22;23709;48.078;11.684;2023-04-29T05:16:20;11.60;99.90
37874;DHT22;23709;48.078;11.684;2023-04-29T05:18:53;11.60;99.90
37874;DHT22;23709;48.078;11.684;2023-04-29T05:21:28;11.60;99.90
37874;DHT22;23709;48.078;11.684;2023-04-29T05:24:03;11.70;99.90
37874;DHT22;23709;48.078;11.684;2023-04-29T05:26:35;11.70;99.90
37874;DHT22;23709;48.078;11.684;2023-04-29T05:29:10;11.80;99.90
37874;DHT22;23709;48.078;11.684;2023-04-29T05:31:51;11.80;99.90
37874;DHT22;23709;48.078;11.684;2023-04-29T05:34:24;11.80;99.90
37874;DHT22;23709;48.078;11.684;2023-04-29T05:36:56;11.80;99.90
37874;DHT22;23709;48.078;11.684;2023-04-29T05:39:29;11.90;99.90
37874;DHT22;23709;48.078;11.684;2023-04-29T05:42:12;11.90;99.90
37874;DHT22;23709;48.078;11.684;2023-04-29T05:44:53;12.00;99.90
37874;DHT22;23709;48.078;11.684;2023-04-29T05:47:26;12.10;99.90
37874;DHT22;23709;48.078;11.684;2023-04-29T05:49:58;12.10;99.90
37874;DHT22;23709;48.078;11.684;2023-04-29T05:52:31;12.20;99.90
37874;DHT22;23709;48.078;11.684;2023-04-29T05:55:04;12.30;99.90
37874;DHT22;23709;48.078;11.684;2023-04-29T05:57:36;12.40;99.90
37874;DHT22;23709;48.078;11.684;2023-04-29T06:00:09;12.50;99.90
37874;DHT22;23709;48.078;11.684;2023-04-29T06:02:47;12.70;99.90
37874;DHT22;23709;48.078;11.684;2023-04-29T06:05:30;12.80;99.90
37874;DHT22;23709;48.078;11.684;2023-04-29T06:08:13;13.00;99.90
37874;DHT22;23709;48.078;11.684;2023-04-29T06:10:53;13.00;99.90
37874;DHT22;23709;48.078;11.684;2023-04-29T06:13:26;13.10;99.90
37874;DHT22;23709;48.078;11.684;2023-04-29T06:15:58;13.20;99.90
37874;DHT22;23709;48.078;11.684;2023-04-29T06:18:35;13.30;99.90
37874;DHT22;23709;48.078;11.684;2023-04-29T06:21:09;13.40;99.90
37874;DHT22;23709;48.078;11.684;2023-04-29T06:23:41;13.40;99.90
37874;DHT22;23709;48.078;11.684;2023-04-29T06:26:20;13.50;99.90
37874;DHT22;23709;48.078;11.684;2023-04-29T06:28:52;13.60;99.90
37874;DHT22;23709;48.078;11.684;2023-04-29T06:31:25;13.60;99.90
37874;DHT22;23709;48.078;11.684;2023-04-29T06:34:03;13.70;99.90
37874;DHT22;23709;48.078;11.684;2023-04-29T06:36:37;13.70;99.90
37874;DHT22;23709;48.078;11.684;2023-04-29T06:39:32;13.80;99.90
37874;DHT22;23709;48.078;11.684;2023-04-29T06:42:30;14.00;99.90
37874;DHT22;23709;48.078;11.684;2023-04-29T06:45:22;14.00;99.90
37874;DHT22;23709;48.078;11.684;2023-04-29T06:48:10;14.20;99.90
37874;DHT22;23709;48.078;11.684;2023-04-29T06:53:22;14.20;99.90
37874;DHT22;23709;48.078;11.684;2023-04-29T06:55:55;14.20;99.90
37874;DHT22;23709;48.078;11.684;2023-04-29T06:58:27;14.10;99.90
37874;DHT22;23709;48.078;11.684;2023-04-29T07:00:59;14.10;99.90
37874;DHT22;23709;48.078;11.684;2023-04-29T07:03:34;14.10;99.90
37874;DHT22;23709;48.078;11.684;2023-04-29T07:06:07;14.10;99.90
37874;DHT22;23709;48.078;11.684;2023-04-29T07:08:39;14.10;99.90
37874;DHT22;23709;48.078;11.684;2023-04-29T07:11:12;14.20;99.90
37874;DHT22;23709;48.078;11.684;2023-04-29T07:13:44;14.30;99.90
37874;DHT22;23709;48.078;11.684;2023-04-29T07:16:16;14.30;99.90
37874;DHT22;23709;48.078;11.684;2023-04-29T07:18:51;14.30;99.90
37874;DHT22;23709;48.078;11.684;2023-04-29T07:21:23;14.50;99.90
37874;DHT22;23709;48.078;11.684;2023-04-29T07:23:56;14.50;99.90
37874;DHT22;23709;48.078;11.684;2023-04-29T07:26:32;14.60;99.90
37874;DHT22;23709;48.078;11.684;2023-04-29T07:29:05;14.70;99.90
37874;DHT22;23709;48.078;11.684;2023-04-29T07:31:37;14.60;99.90
37874;DHT22;23709;48.078;11.684;2023-04-29T07:34:09;14.60;99.90
37874;DHT22;23709;48.078;11.684;2023-04-29T07:36:42;14.50;99.90
37874;DHT22;23709;48.078;11.684;2023-04-29T07:39:15;14.60;99.90
37874;DHT22;23709;48.078;11.684;2023-04-29T07:41:51;14.70;99.90
37874;DHT22;23709;48.078;11.684;2023-04-29T07:44:24;14.70;99.90
37874;DHT22;23709;48.078;11.684;2023-04-29T07:46:56;14.90;99.90
37874;DHT22;23709;48.078;11.684;2023-04-29T07:49:29;15.00;99.90
37874;DHT22;23709;48.078;11.684;2023-04-29T07:52:01;15.20;99.90
37874;DHT22;23709;48.078;11.684;2023-04-29T07:54:38;15.20;99.90
37874;DHT22;23709;48.078;11.684;2023-04-29T07:57:10;15.30;99.90
37874;DHT22;23709;48.078;11.684;2023-04-29T07:59:42;15.50;99.90
37874;DHT22;23709;48.078;11.684;2023-04-29T08:02:15;15.60;99.90
37874;DHT22;23709;48.078;11.684;2023-04-29T08:04:47;15.50;99.90
37874;DHT22;23709;48.078;11.684;2023-04-29T08:07:23;15.50;99.90
37874;DHT22;23709;48.078;11.684;2023-04-29T08:09:55;15.60;99.90
37874;DHT22;23709;48.078;11.684;2023-04-29T08:12:27;15.80;99.90
37874;DHT22;23709;48.078;11.684;2023-04-29T08:15:00;16.00;99.90
37874;DHT22;23709;48.078;11.684;2023-04-29T08:17:32;16.20;99.90
37874;DHT22;23709;48.078;11.684;2023-04-29T08:20:05;16.20;99.90
37874;DHT22;23709;48.078;11.684;2023-04-29T08:22:39;16.10;99.90
37874;DHT22;23709;48.078;11.684;2023-04-29T08:25:12;15.90;99.90
37874;DHT22;23709;48.078;11.684;2023-04-29T08:27:44;15.80;99.90
37874;DHT22;23709;48.078;11.684;2023-04-29T08:30:17;15.80;99.90
37874;DHT22;23709;48.078;11.684;2023-04-29T08:32:49;15.80;99.90
37874;DHT22;23709;48.078;11.684;2023-04-29T08:35:22;15.70;99.90
37874;DHT22;23709;48.078;11.684;2023-04-29T08:37:54;15.70;99.90
37874;DHT22;23709;48.078;11.684;2023-04-29T08:40:26;15.70;99.90
37874;DHT22;23709;48.078;11.684;2023-04-29T08:42:59;15.90;99.90
37874;DHT22;23709;48.078;11.684;2023-04-29T08:45:32;16.10;99.90
37874;DHT22;23709;48.078;11.684;2023-04-29T08:48:09;16.40;99.90
37874;DHT22;23709;48.078;11.684;2023-04-29T08:50:42;16.50;99.90
37874;DHT22;23709;48.078;11.684;2023-04-29T08:53:15;16.40;99.90
37874;DHT22;23709;48.078;11.684;2023-04-29T08:55:48;16.40;99.90
37874;DHT22;23709;48.078;11.684;2023-04-29T08:58:20;16.20;99.90
37874;DHT22;23709;48.078;11.684;2023-04-29T09:00:53;16.10;99.90
37874;DHT22;23709;48.078;11.684;2023-04-29T09:06:32;16.20;99.90
37874;DHT22;23709;48.078;11.684;2023-04-29T09:09:05;16.00;99.90
37874;DHT22;23709;48.078;11.684;2023-04-29T09:11:38;16.00;99.90
37874;DHT22;23709;48.078;11.684;2023-04-29T09:14:11;16.10;99.90
37874;DHT22;23709;48.078;11.684;2023-04-29T09:16:46;16.20;99.90
37874;DHT22;23709;48.078;11.684;2023-04-29T09:19:32;16.20;99.90
37874;DHT22;23709;48.078;11.684;2023-04-29T09:22:05;16.40;99.90
37874;DHT22;23709;48.078;11.684;2023-04-29T09:24:38;16.60;99.90
37874;DHT22;23709;48.078;11.684;2023-04-29T09:27:25;16.80;99.90
37874;DHT22;23709;48.078;11.684;2023-04-29T09:30:01;17.00;99.90
37874;DHT22;23709;48.078;11.684;2023-04-29T09:32:34;16.90;99.90
37874;DHT22;23709;48.078;11.684;2023-04-29T09:35:24;16.90;99.90
37874;DHT22;23709;48.078;11.684;2023-04-29T09:38:13;16.90;99.90
37874;DHT22;23709;48.078;11.684;2023-04-29T09:40:46;16.90;99.90
37874;DHT22;23709;48.078;11.684;2023-04-29T09:43:30;16.80;99.90
37874;DHT22;23709;48.078;11.684;2023-04-29T09:46:02;16.70;99.90
37874;DHT22;23709;48.078;11.684;2023-04-29T09:48:35;16.70;99.90
37874;DHT22;23709;48.078;11.684;2023-04-29T09:51:07;16.70;99.90
37874;DHT22;23709;48.078;11.684;2023-04-29T09:53:40;16.70;99.90
37874;DHT22;23709;48.078;11.684;2023-04-29T09:56:12;16.80;99.90
37874;DHT22;23709;48.078;11.684;2023-04-29T09:58:44;16.90;99.90
37874;DHT22;23709;48.078;11.684;2023-04-29T10:01:17;17.00;99.90
37874;DHT22;23709;48.078;11.684;2023-04-29T10:03:53;17.00;99.90
37874;DHT22;23709;48.078;11.684;2023-04-29T10:06:26;17.10;99.90
37874;DHT22;23709;48.078;11.684;2023-04-29T10:09:00;17.30;99.90
37874;DHT22;23709;48.078;11.684;2023-04-29T10:11:34;17.20;99.90
37874;DHT22;23709;48.078;11.684;2023-04-29T10:14:11;16.90;97.20
37874;DHT22;23709;48.078;11.684;2023-04-29T10:21:57;16.50;98.80
37874;DHT22;23709;48.078;11.684;2023-04-29T10:24:34;16.50;98.40
37874;DHT22;23709;48.078;11.684;2023-04-29T10:27:09;16.70;98.50
37874;DHT22;23709;48.078;11.684;2023-04-29T10:29:47;17.00;98.20
37874;DHT22;23709;48.078;11.684;2023-04-29T10:32:23;17.30;96.50
37874;DHT22;23709;48.078;11.684;2023-04-29T10:34:56;17.50;96.60
37874;DHT22;23709;48.078;11.684;2023-04-29T10:37:29;17.70;96.90
37874;DHT22;23709;48.078;11.684;2023-04-29T10:40:15;17.70;94.70
37874;DHT22;23709;48.078;11.684;2023-04-29T10:42:53;17.60;95.90
37874;DHT22;23709;48.078;11.684;2023-04-29T10:45:30;17.60;96.30
37874;DHT22;23709;48.078;11.684;2023-04-29T10:53:20;17.60;99.90
37874;DHT22;23709;48.078;11.684;2023-04-29T10:56:13;17.70;99.90
37874;DHT22;23709;48.078;11.684;2023-04-29T10:58:45;17.90;99.90
37874;DHT22;23709;48.078;11.684;2023-04-29T11:01:41;17.90;99.90
37874;DHT22;23709;48.078;11.684;2023-04-29T11:04:15;18.20;99.90
37874;DHT22;23709;48.078;11.684;2023-04-29T11:06:51;18.60;99.90
37874;DHT22;23709;48.078;11.684;2023-04-29T11:09:26;19.00;97.10
37874;DHT22;23709;48.078;11.684;2023-04-29T11:12:00;18.80;94.70
37874;DHT22;23709;48.078;11.684;2023-04-29T11:14:45;18.70;96.20
37874;DHT22;23709;48.078;11.684;2023-04-29T11:17:20;18.30;93.80
37874;DHT22;23709;48.078;11.684;2023-04-29T11:19:54;18.20;93.30
37874;DHT22;23709;48.078;11.684;2023-04-29T11:22:28;18.10;94.80
37874;DHT22;23709;48.078;11.684;2023-04-29T11:25:02;17.80;93.00
37874;DHT22;23709;48.078;11.684;2023-04-29T11:27:38;17.70;94.50
37874;DHT22;23709;48.078;11.684;2023-04-29T11:30:11;17.70;96.10
37874;DHT22;23709;48.078;11.684;2023-04-29T11:32:44;17.80;95.30
37874;DHT22;23709;48.078;11.684;2023-04-29T11:35:17;18.10;94.50
37874;DHT22;23709;48.078;11.684;2023-04-29T11:37:53;18.20;93.60
37874;DHT22;23709;48.078;11.684;2023-04-29T11:40:26;18.40;92.70
37874;DHT22;23709;48.078;11.684;2023-04-29T11:42:58;18.30;91.30
37874;DHT22;23709;48.078;11.684;2023-04-29T11:45:30;18.60;90.80
37874;DHT22;23709;48.078;11.684;2023-04-29T11:48:06;19.10;88.30
37874;DHT22;23709;48.078;11.684;2023-04-29T11:50:41;19.40;82.60
37874;DHT22;23709;48.078;11.684;2023-04-29T11:53:13;19.30;82.90
37874;DHT22;23709;48.078;11.684;2023-04-29T11:55:46;19.30;80.80
37874;DHT22;23709;48.078;11.684;2023-04-29T11:58:22;19.70;85.80
37874;DHT22;23709;48.078;11.684;2023-04-29T12:00:57;20.30;79.80
37874;DHT22;23709;48.078;11.684;2023-04-29T12:03:31;20.30;79.50
37874;DHT22;23709;48.078;11.684;2023-04-29T12:06:05;20.40;77.80
37874;DHT22;23709;48.078;11.684;2023-04-29T12:08:39;20.50;77.20
37874;DHT22;23709;48.078;11.684;2023-04-29T12:11:12;20.70;78.10
37874;DHT22;23709;48.078;11.684;2023-04-29T12:13:44;20.60;76.20
37874;DHT22;23709;48.078;11.684;2023-04-29T12:16:17;20.80;77.90
37874;DHT22;23709;48.078;11.684;2023-04-29T12:18:51;21.20;74.40
37874;DHT22;23709;48.078;11.684;2023-04-29T12:21:24;21.30;70.30
37874;DHT22;23709;48.078;11.684;2023-04-29T12:24:01;21.10;70.90
37874;DHT22;23709;48.078;11.684;2023-04-29T12:26:33;20.80;73.30
37874;DHT22;23709;48.078;11.684;2023-04-29T12:29:09;21.30;73.60
37874;DHT22;23709;48.078;11.684;2023-04-29T12:31:45;21.70;68.70
37874;DHT22;23709;48.078;11.684;2023-04-29T12:34:27;21.90;68.40
37874;DHT22;23709;48.078;11.684;2023-04-29T12:37:00;22.10;65.50
37874;DHT22;23709;48.078;11.684;2023-04-29T12:39:33;21.70;66.20
37874;DHT22;23709;48.078;11.684;2023-04-29T12:42:05;21.20;66.70
37874;DHT22;23709;48.078;11.684;2023-04-29T12:44:37;21.20;68.90
37874;DHT22;23709;48.078;11.684;2023-04-29T12:47:10;21.40;67.40
37874;DHT22;23709;48.078;11.684;2023-04-29T12:49:45;21.10;66.50
37874;DHT22;23709;48.078;11.684;2023-04-29T12:52:18;21.00;67.40
37874;DHT22;23709;48.078;11.684;2023-04-29T12:54:50;20.80;66.30
37874;DHT22;23709;48.078;11.684;2023-04-29T12:57:23;20.80;67.20
37874;DHT22;23709;48.078;11.684;2023-04-29T12:59:57;20.60;66.60
37874;DHT22;23709;48.078;11.684;2023-04-29T13:02:29;20.90;67.10
37874;DHT22;23709;48.078;11.684;2023-04-29T13:05:02;21.40;68.20
37874;DHT22;23709;48.078;11.684;2023-04-29T13:07:36;21.50;65.30
37874;DHT22;23709;48.078;11.684;2023-04-29T13:10:08;21.60;65.50
37874;DHT22;23709;48.078;11.684;2023-04-29T13:12:43;21.40;66.00
37874;DHT22;23709;48.078;11.684;2023-04-29T13:15:15;21.40;66.40
37874;DHT22;23709;48.078;11.684;2023-04-29T13:17:48;21.30;65.10
37874;DHT22;23709;48.078;11.684;2023-04-29T13:20:20;21.50;65.10
37874;DHT22;23709;48.078;11.684;2023-04-29T13:22:52;21.90;67.20
37874;DHT22;23709;48.078;11.684;2023-04-29T13:25:25;22.40;63.50
37874;DHT22;23709;48.078;11.684;2023-04-29T13:27:57;22.30;61.80
37874;DHT22;23709;48.078;11.684;2023-04-29T13:30:30;21.50;63.80
37874;DHT22;23709;48.078;11.684;2023-04-29T13:33:02;21.60;65.30
37874;DHT22;23709;48.078;11.684;2023-04-29T13:35:43;22.00;61.60
37874;DHT22;23709;48.078;11.684;2023-04-29T13:38:15;22.00;61.30
37874;DHT22;23709;48.078;11.684;2023-04-29T13:40:48;22.30;62.20
37874;DHT22;23709;48.078;11.684;2023-04-29T13:43:22;22.40;60.30
37874;DHT22;23709;48.078;11.684;2023-04-29T13:46:08;22.60;59.30
37874;DHT22;23709;48.078;11.684;2023-04-29T13:48:42;22.50;59.90
37874;DHT22;23709;48.078;11.684;2023-04-29T13:51:34;21.70;60.20
37874;DHT22;23709;48.078;11.684;2023-04-29T13:54:27;21.20;63.00
37874;DHT22;23709;48.078;11.684;2023-04-29T13:57:19;21.60;63.10
37874;DHT22;23709;48.078;11.684;2023-04-29T13:59:55;21.70;61.00
37874;DHT22;23709;48.078;11.684;2023-04-29T14:02:28;21.80;61.00
37874;DHT22;23709;48.078;11.684;2023-04-29T14:05:01;21.60;59.80
37874;DHT22;23709;48.078;11.684;2023-04-29T14:07:34;21.80;60.80
37874;DHT22;23709;48.078;11.684;2023-04-29T14:10:06;21.60;59.80
37874;DHT22;23709;48.078;11.684;2023-04-29T14:12:39;21.90;61.80
37874;DHT22;23709;48.078;11.684;2023-04-29T14:15:11;22.20;60.40
37874;DHT22;23709;48.078;11.684;2023-04-29T14:17:44;22.60;59.90
37874;DHT22;23709;48.078;11.684;2023-04-29T14:20:16;22.50;58.20
37874;DHT22;23709;48.078;11.684;2023-04-29T14:22:48;22.40;57.70
37874;DHT22;23709;48.078;11.684;2023-04-29T14:25:20;21.50;59.20
37874;DHT22;23709;48.078;11.684;2023-04-29T14:27:53;21.30;58.70
37874;DHT22;23709;48.078;11.684;2023-04-29T14:30:26;21.50;59.30
37874;DHT22;23709;48.078;11.684;2023-04-29T14:32:58;21.70;60.00
37874;DHT22;23709;48.078;11.684;2023-04-29T14:35:30;21.40;60.60
37874;DHT22;23709;48.078;11.684;2023-04-29T14:38:02;21.30;61.10
37874;DHT22;23709;48.078;11.684;2023-04-29T14:40:35;21.30;60.80
37874;DHT22;23709;48.078;11.684;2023-04-29T14:43:07;21.20;60.70
37874;DHT22;23709;48.078;11.684;2023-04-29T14:45:40;21.50;62.10
37874;DHT22;23709;48.078;11.684;2023-04-29T14:48:12;21.30;61.80
37874;DHT22;23709;48.078;11.684;2023-04-29T14:50:45;20.90;62.50
37874;DHT22;23709;48.078;11.684;2023-04-29T14:53:17;20.60;64.00
37874;DHT22;23709;48.078;11.684;2023-04-29T14:55:50;20.50;64.10
37874;DHT22;23709;48.078;11.684;2023-04-29T14:58:22;20.20;65.50
37874;DHT22;23709;48.078;11.684;2023-04-29T15:00:54;20.30;65.20
37874;DHT22;23709;48.078;11.684;2023-04-29T15:03:27;20.10;64.40
37874;DHT22;23709;48.078;11.684;2023-04-29T15:06:02;20.20;66.20
37874;DHT22;23709;48.078;11.684;2023-04-29T15:08:35;20.30;66.00
37874;DHT22;23709;48.078;11.684;2023-04-29T15:11:09;20.10;66.20
37874;DHT22;23709;48.078;11.684;2023-04-29T15:13:41;20.30;66.10
37874;DHT22;23709;48.078;11.684;2023-04-29T15:16:14;20.70;65.90
37874;DHT22;23709;48.078;11.684;2023-04-29T15:18:46;21.10;64.10
37874;DHT22;23709;48.078;11.684;2023-04-29T15:21:18;21.00;62.50
37874;DHT22;23709;48.078;11.684;2023-04-29T15:23:52;21.20;62.40
37874;DHT22;23709;48.078;11.684;2023-04-29T15:26:25;21.20;62.10
37874;DHT22;23709;48.078;11.684;2023-04-29T15:28:58;21.10;62.50
37874;DHT22;23709;48.078;11.684;2023-04-29T15:31:30;20.50;62.30
37874;DHT22;23709;48.078;11.684;2023-04-29T15:34:03;20.60;62.60
37874;DHT22;23709;48.078;11.684;2023-04-29T15:36:35;20.30;62.30
37874;DHT22;23709;48.078;11.684;2023-04-29T15:39:08;19.90;62.40
37874;DHT22;23709;48.078;11.684;2023-04-29T15:41:41;19.70;64.70
37874;DHT22;23709;48.078;11.684;2023-04-29T15:44:14;19.10;65.20
37874;DHT22;23709;48.078;11.684;2023-04-29T15:46:46;18.90;66.00
37874;DHT22;23709;48.078;11.684;2023-04-29T15:49:19;18.80;66.40
37874;DHT22;23709;48.078;11.684;2023-04-29T15:51:54;18.70;67.10
37874;DHT22;23709;48.078;11.684;2023-04-29T15:54:27;18.50;68.60
37874;DHT22;23709;48.078;11.684;2023-04-29T15:56:59;18.50;69.40
37874;DHT22;23709;48.078;11.684;2023-04-29T15:59:32;18.40;68.30
37874;DHT22;23709;48.078;11.684;2023-04-29T16:02:04;18.30;68.60
37874;DHT22;23709;48.078;11.684;2023-04-29T16:04:42;18.20;69.10
37874;DHT22;23709;48.078;11.684;2023-04-29T16:07:15;18.10;69.40
37874;DHT22;23709;48.078;11.684;2023-04-29T16:09:47;18.20;69.10
37874;DHT22;23709;48.078;11.684;2023-04-29T16:12:20;18.10;69.30
37874;DHT22;23709;48.078;11.684;2023-04-29T16:14:52;18.10;69.00
37874;DHT22;23709;48.078;11.684;2023-04-29T16:17:24;18.10;69.00
37874;DHT22;23709;48.078;11.684;2023-04-29T16:19:57;18.00;69.20
37874;DHT22;23709;48.078;11.684;2023-04-29T16:22:29;17.70;69.70
37874;DHT22;23709;48.078;11.684;2023-04-29T16:25:02;17.70;69.60
37874;DHT22;23709;48.078;11.684;2023-04-29T16:27:35;17.90;70.60